Time;durP1;ratioP1;P1;durP2;ratioP2;P2;SDS_P1;SDS_P2;PMS_P1;PMS_P2;Temp;Humidity;BMP_temperature;BMP_pressure;BME280_temperature;BME280_humidity;BME280_pressure;Samples;Min_cycle;Max_cycle;Signal;HPM_P1;HPM_P2
2023/01/07 00:02:00;;;;;;;8.87;7.93;;;;;;;8.97;100.00;101473.31;5263110;28;20116;-75
2023/01/07 00:04:31;;;;;;;10.80;8.00;;;;;;;8.93;100.00;101475.94;5262430;28;20032;-75
2023/01/07 00:07:03;;;;;;;10.67;8.83;;;;;;;8.93;100.00;101472.44;5262676;28;20056;-76
2023/01/07 00:09:34;;;;;;;10.83;8.10;;;;;;;8.93;100.00;101467.25;5261520;28;20037;-75
2023/01/07 00:12:06;;;;;;;11.70;9.33;;;;;;;8.91;100.00;101459.44;5261726;28;20037;-75
2023/01/07 00:14:37;;;;;;;11.50;9.20;;;;;;;8.92;100.00;101460.31;5262747;28;20033;-75
2023/01/07 00:17:08;;;;;;;11.00;9.77;;;;;;;8.91;100.00;101463.78;5262557;28;20029;-76
2023/01/07 00:19:40;;;;;;;10.77;9.20;;;;;;;8.93;100.00;101459.44;5262592;28;20025;-77
2023/01/07 00:22:11;;;;;;;12.43;10.20;;;;;;;8.96;100.00;101456.84;5262471;28;20136;-75
2023/01/07 00:24:42;;;;;;;17.13;9.33;;;;;;;8.98;100.00;101456.88;5262573;28;20079;-76
2023/01/07 00:27:14;;;;;;;15.47;10.67;;;;;;;9.05;100.00;101466.47;5261212;28;20116;-75
2023/01/07 00:29:45;;;;;;;14.23;9.10;;;;;;;9.02;100.00;101453.44;5262535;28;20025;-75
2023/01/07 00:32:16;;;;;;;14.33;9.53;;;;;;;9.03;100.00;101457.75;5262436;28;20473;-76
2023/01/07 00:34:48;;;;;;;10.83;9.23;;;;;;;9.05;100.00;101438.72;5262166;28;20036;-75
2023/01/07 00:40:10;;;;;;;12.27;9.60;;;;;;;9.03;100.00;101437.84;5261399;28;20037;-76
2023/01/07 00:42:53;;;;;;;11.10;9.38;;;;;;;9.03;100.00;101440.44;5262196;28;20075;-75
2023/01/07 00:45:24;;;;;;;10.02;8.85;;;;;;;9.04;100.00;101436.09;5261284;28;20463;-76
2023/01/07 00:47:57;;;;;;;14.10;9.03;;;;;;;9.00;100.00;101434.34;5262391;28;20079;-76
2023/01/07 00:50:35;;;;;;;10.88;8.32;;;;;;;9.01;100.00;101436.09;5262243;28;20044;-76
2023/01/07 00:53:06;;;;;;;11.82;8.80;;;;;;;8.99;100.00;101424.81;5261790;28;20024;-77
2023/01/07 00:55:38;;;;;;;12.90;8.40;;;;;;;8.98;100.00;101423.06;5262371;28;20145;-75
2023/01/07 00:58:14;;;;;;;10.43;7.40;;;;;;;9.02;100.00;101430.03;5262257;28;20037;-74
2023/01/07 01:00:46;;;;;;;11.23;6.63;;;;;;;9.02;100.00;101420.50;5262235;28;20033;-76
2023/01/07 01:03:18;;;;;;;10.65;6.88;;;;;;;9.02;100.00;101417.03;5263211;28;20091;-75
2023/01/07 01:05:49;;;;;;;11.07;7.30;;;;;;;8.96;100.00;101412.66;5266127;28;20029;-76
2023/01/07 01:08:22;;;;;;;10.13;7.27;;;;;;;8.93;100.00;101415.25;5266145;28;20140;-75
2023/01/07 01:10:53;;;;;;;9.32;7.05;;;;;;;8.91;100.00;101406.56;5266190;28;20033;-75
2023/01/07 01:13:25;;;;;;;11.57;7.57;;;;;;;8.87;100.00;101394.41;5266017;28;20044;-75
2023/01/07 01:15:56;;;;;;;9.83;7.43;;;;;;;8.83;100.00;101393.53;5264812;28;20029;-75
2023/01/07 01:18:28;;;;;;;10.10;7.63;;;;;;;8.80;100.00;101397.88;5265869;28;20083;-76
2023/01/07 01:21:07;;;;;;;10.27;7.27;;;;;;;8.81;100.00;101397.88;5265850;28;20078;-75
2023/01/07 01:23:39;;;;;;;10.93;6.88;;;;;;;8.77;100.00;101396.09;5265767;28;20033;-74
2023/01/07 01:26:14;;;;;;;12.10;7.60;;;;;;;8.72;100.00;101388.28;5275866;28;20043;-75
2023/01/07 01:28:45;;;;;;;13.77;7.43;;;;;;;8.71;100.00;101386.56;5286761;28;20024;-76
2023/01/07 01:31:17;;;;;;;10.80;7.33;;;;;;;8.70;100.00;101378.75;5286651;28;20033;-75
2023/01/07 01:33:51;;;;;;;12.20;7.73;;;;;;;8.71;100.00;101386.56;5287269;28;20483;-75
2023/01/07 01:36:23;;;;;;;9.55;6.78;;;;;;;8.70;100.00;101377.00;5301150;28;20068;-75
2023/01/07 01:38:56;;;;;;;11.77;6.83;;;;;;;8.69;100.00;101377.88;5301789;28;20082;-76
2023/01/07 01:41:27;;;;;;;15.68;8.18;;;;;;;8.70;100.00;101381.34;5291267;28;20036;-74
2023/01/07 01:43:59;;;;;;;9.03;7.07;;;;;;;8.73;100.00;101366.63;5290257;28;20025;-76
2023/01/07 01:46:43;;;;;;;9.93;6.60;;;;;;;8.70;100.00;101377.00;5288468;28;20036;-75
2023/01/07 01:49:33;;;;;;;10.82;7.13;;;;;;;8.69;100.00;101385.66;5287308;28;20090;-74
2023/01/07 01:52:14;;;;;;;9.98;6.30;;;;;;;8.65;100.00;101380.47;5288152;28;20039;-75
2023/01/07 01:54:54;;;;;;;9.45;6.90;;;;;;;8.65;100.00;101383.06;5288198;28;20028;-74
2023/01/07 01:57:28;;;;;;;9.77;6.90;;;;;;;8.67;100.00;101378.75;5288570;28;20028;-75
2023/01/07 02:00:00;;;;;;;8.98;6.60;;;;;;;8.67;100.00;101382.19;5286956;28;20040;-75
2023/01/07 02:02:37;;;;;;;9.73;6.73;;;;;;;8.65;100.00;101383.94;5288265;28;20055;-75
2023/01/07 02:05:08;;;;;;;9.85;7.13;;;;;;;8.64;100.00;101376.97;5275692;28;20025;-75
2023/01/07 02:07:40;;;;;;;8.77;5.97;;;;;;;8.61;100.00;101382.16;5265279;28;20049;-76
2023/01/07 02:10:21;;;;;;;12.10;6.53;;;;;;;8.64;100.00;101381.31;5266145;28;20055;-75
2023/01/07 02:13:19;;;;;;;7.93;6.25;;;;;;;8.62;100.00;101383.06;5266563;28;20021;-75
2023/01/07 02:16:21;;;;;;;9.40;6.40;;;;;;;8.59;100.00;101386.50;5264611;28;20380;-75
2023/01/07 02:19:31;;;;;;;13.13;6.78;;;;;;;8.57;100.00;101375.22;5264625;28;20029;-74
2023/01/07 02:22:11;;;;;;;10.27;6.82;;;;;;;8.57;100.00;101372.63;5262147;28;20041;-74
2023/01/07 02:25:11;;;;;;;11.13;6.30;;;;;;;8.58;100.00;101369.16;5263011;28;20086;-74
2023/01/07 02:27:45;;;;;;;9.10;6.40;;;;;;;8.55;100.00;101376.97;5264950;28;20459;-75
2023/01/07 02:30:30;;;;;;;8.35;6.18;;;;;;;8.58;100.00;101376.94;5264394;28;20136;-74
2023/01/07 02:33:27;;;;;;;9.60;6.15;;;;;;;8.53;100.00;101371.75;5264819;28;20052;-74
2023/01/07 02:36:13;;;;;;;9.98;5.45;;;;;;;8.49;100.00;101375.19;5263584;28;20471;-74
2023/01/07 02:38:59;;;;;;;8.75;6.03;;;;;;;8.45;100.00;101370.81;5264599;28;20037;-73
2023/01/07 02:41:44;;;;;;;7.28;5.53;;;;;;;8.46;100.00;101369.13;5263896;28;20064;-73
2023/01/07 02:44:30;;;;;;;8.63;6.25;;;;;;;8.44;100.00;101369.09;5264384;28;20512;-74
2023/01/07 02:47:30;;;;;;;7.22;5.30;;;;;;;8.47;100.00;101360.44;5264076;28;20425;-74
2023/01/07 02:50:05;;;;;;;8.43;5.50;;;;;;;8.51;100.00;101360.47;5264299;28;20025;-75
2023/01/07 02:52:36;;;;;;;8.85;6.57;;;;;;;8.57;100.00;101352.69;5263316;28;20025;-74
2023/01/07 02:55:14;;;;;;;6.50;5.50;;;;;;;8.62;100.00;101355.31;5263942;28;20029;-75
2023/01/07 02:58:07;;;;;;;7.00;5.00;;;;;;;8.71;100.00;101350.19;5264106;28;20061;-75
2023/01/07 03:01:07;;;;;;;7.53;5.25;;;;;;;8.78;100.00;101356.25;5263489;28;20427;-74
2023/01/07 03:04:11;;;;;;;12.20;5.47;;;;;;;8.86;100.00;101364.09;5263946;28;20037;-75
2023/01/07 03:06:45;;;;;;;7.80;5.47;;;;;;;8.89;100.00;101348.50;5249248;28;20370;-73
2023/01/07 03:09:40;;;;;;;9.13;4.95;;;;;;;8.96;100.00;101346.78;5263878;28;20040;-74
2023/01/07 03:12:44;;;;;;;6.25;5.03;;;;;;;8.98;100.00;101342.47;5263496;28;20036;-74
2023/01/07 03:15:25;;;;;;;9.20;4.78;;;;;;;8.99;100.00;101339.00;5263978;28;20044;-74
2023/01/07 03:18:05;;;;;;;8.70;5.13;;;;;;;8.99;100.00;101334.66;5263872;28;20108;-75
2023/01/07 03:20:38;;;;;;;8.10;4.97;;;;;;;9.00;100.00;101326.00;5263410;28;20025;-75
2023/01/07 03:23:13;;;;;;;7.75;4.88;;;;;;;9.04;100.00;101326.88;5263094;28;20037;-75
2023/01/07 03:25:49;;;;;;;6.30;4.50;;;;;;;9.03;100.00;101323.41;5262797;28;20033;-74
2023/01/07 03:28:26;;;;;;;7.28;4.22;;;;;;;9.02;100.00;101324.28;5263124;28;20418;-74
2023/01/07 03:30:59;;;;;;;9.23;4.20;;;;;;;9.06;100.00;101313.00;5263381;28;20040;-74
2023/01/07 03:33:42;;;;;;;5.85;3.92;;;;;;;9.06;100.00;101310.38;5263178;28;20472;-74
2023/01/07 03:36:19;;;;;;;7.90;4.15;;;;;;;9.09;100.00;101310.41;5262744;28;20032;-75
2023/01/07 03:38:51;;;;;;;7.90;4.30;;;;;;;9.08;100.00;101310.38;5262954;28;20473;-76
2023/01/07 03:44:13;;;;;;;6.15;4.25;;;;;;;9.08;100.00;101303.47;5262880;28;20033;-75
2023/01/07 03:46:44;;;;;;;7.70;3.70;;;;;;;9.09;100.00;101305.19;5261504;28;20362;-74
2023/01/07 03:49:16;;;;;;;6.00;3.93;;;;;;;9.13;100.00;101306.09;5263026;28;20065;-74
2023/01/07 03:51:48;;;;;;;7.30;4.20;;;;;;;9.15;100.00;101301.75;5262276;28;20041;-74
2023/01/07 03:54:20;;;;;;;7.10;4.28;;;;;;;9.13;100.00;101291.34;5262883;28;20036;-75
2023/01/07 03:56:51;;;;;;;5.63;3.28;;;;;;;9.16;100.00;101295.69;5263038;28;20472;-73
2023/01/07 03:59:23;;;;;;;9.87;3.30;;;;;;;9.17;100.00;101300.00;5262809;28;20059;-74
2023/01/07 04:01:54;;;;;;;7.07;3.63;;;;;;;9.21;100.00;101300.88;5262581;28;20044;-73
2023/01/07 04:04:26;;;;;;;8.30;3.80;;;;;;;9.19;100.00;101289.59;5262418;28;20063;-75
2023/01/07 04:06:57;;;;;;;5.47;3.23;;;;;;;9.19;100.00;101282.66;5262636;28;20049;-74
2023/01/07 04:09:28;;;;;;;5.07;3.20;;;;;;;9.16;100.00;101279.19;5262578;28;20025;-74
2023/01/07 04:12:00;;;;;;;8.73;3.83;;;;;;;9.16;100.00;101280.09;5262363;28;20037;-75
2023/01/07 04:14:31;;;;;;;5.17;3.77;;;;;;;9.18;100.00;101278.34;5262518;28;20037;-75
2023/01/07 04:17:02;;;;;;;5.23;3.73;;;;;;;9.19;100.00;101274.84;5262672;28;20068;-74
2023/01/07 04:19:34;;;;;;;7.87;4.07;;;;;;;9.17;100.00;101270.53;5261511;28;20025;-75
2023/01/07 04:22:08;;;;;;;6.57;3.57;;;;;;;9.12;100.00;101262.72;5262357;28;20108;-74
2023/01/07 04:24:39;;;;;;;5.50;3.45;;;;;;;9.08;100.00;101258.38;5262613;28;20525;-74
2023/01/07 04:27:10;;;;;;;11.83;4.77;;;;;;;9.02;100.00;101253.19;5262584;28;20029;-75
2023/01/07 04:29:42;;;;;;;6.87;3.53;;;;;;;8.97;100.00;101250.59;5261166;28;20112;-75
2023/01/07 04:32:13;;;;;;;4.80;3.57;;;;;;;8.94;100.00;101251.44;5262281;28;20037;-74
2023/01/07 04:34:45;;;;;;;6.37;3.70;;;;;;;8.93;100.00;101241.03;5262298;28;20068;-75
2023/01/07 04:37:16;;;;;;;6.47;3.23;;;;;;;8.90;100.00;101247.13;5263507;28;20087;-75
2023/01/07 04:39:47;;;;;;;7.63;3.37;;;;;;;8.86;100.00;101241.91;5266589;28;20119;-75
2023/01/07 04:42:19;;;;;;;5.43;3.03;;;;;;;8.80;100.00;101234.09;5266860;28;20033;-75
2023/01/07 04:44:50;;;;;;;6.70;3.20;;;;;;;8.72;100.00;101234.06;5266428;28;20040;-75
2023/01/07 04:47:22;;;;;;;5.00;3.37;;;;;;;8.75;100.00;101229.75;5266505;28;20035;-75
2023/01/07 04:49:53;;;;;;;7.10;3.07;;;;;;;8.67;100.00;101221.06;5266467;28;20047;-75
2023/01/07 04:52:24;;;;;;;4.70;3.30;;;;;;;8.67;100.00;101226.25;5266016;28;20029;-74
2023/01/07 04:54:56;;;;;;;6.07;3.10;;;;;;;8.70;100.00;101212.41;5266652;28;20064;-74
2023/01/07 04:57:27;;;;;;;7.70;3.40;;;;;;;8.68;100.00;101217.59;5270915;28;20508;-75
2023/01/07 04:59:58;;;;;;;6.60;3.30;;;;;;;8.69;100.00;101214.13;5287601;28;20096;-75
2023/01/07 05:02:30;;;;;;;5.73;2.90;;;;;;;8.71;100.00;101211.53;5280325;28;20143;-74
2023/01/07 05:05:02;;;;;;;6.17;3.20;;;;;;;8.74;100.00;101212.44;5269619;28;20021;-74
2023/01/07 05:07:34;;;;;;;6.40;4.15;;;;;;;8.69;100.00;101211.53;5267441;28;20118;-74
2023/01/07 05:10:05;;;;;;;8.10;3.13;;;;;;;8.70;100.00;101209.81;5268225;28;20041;-74
2023/01/07 05:12:37;;;;;;;7.00;2.97;;;;;;;8.68;100.00;101206.34;5267228;28;20025;-75
2023/01/07 05:15:09;;;;;;;5.20;3.20;;;;;;;8.72;100.00;101211.53;5267169;28;20041;-75
2023/01/07 05:17:40;;;;;;;6.55;2.92;;;;;;;8.68;100.00;101209.81;5267007;28;20032;-75
2023/01/07 05:20:13;;;;;;;4.23;2.60;;;;;;;8.67;100.00;101205.47;5267004;28;20029;-75
2023/01/07 05:22:45;;;;;;;5.85;3.08;;;;;;;8.67;100.00;101202.88;5267579;28;20033;-74
2023/01/07 05:25:16;;;;;;;4.97;2.92;;;;;;;8.64;100.00;101197.66;5266778;28;20033;-74
2023/01/07 05:27:47;;;;;;;4.60;2.70;;;;;;;8.67;100.00;101205.47;5267248;28;20071;-74
2023/01/07 05:30:19;;;;;;;5.83;2.40;;;;;;;8.66;100.00;101201.16;5266922;28;20403;-73
2023/01/07 05:32:50;;;;;;;15.17;3.07;;;;;;;8.68;100.00;101195.97;5264987;28;20068;-73
2023/01/07 05:35:22;;;;;;;4.37;3.00;;;;;;;8.66;100.00;101195.97;5265700;28;20494;-74
2023/01/07 05:37:53;;;;;;;7.57;2.73;;;;;;;8.69;100.00;101195.94;5265675;28;20378;-73
2023/01/07 05:40:24;;;;;;;7.57;2.47;;;;;;;8.71;100.00;101199.44;5264521;28;20037;-74
2023/01/07 05:42:56;;;;;;;4.77;2.67;;;;;;;8.75;100.00;101200.28;5264396;28;20029;-73
2023/01/07 05:45:27;;;;;;;3.53;2.27;;;;;;;8.77;100.00;101201.16;5265499;28;20063;-74
2023/01/07 05:47:58;;;;;;;7.93;2.33;;;;;;;8.81;100.00;101186.44;5265403;28;20059;-73
2023/01/07 05:50:30;;;;;;;3.33;2.17;;;;;;;8.86;100.00;101193.38;5263675;28;20035;-74
2023/01/07 05:53:01;;;;;;;6.40;2.27;;;;;;;8.92;100.00;101193.38;5264789;28;20045;-73
2023/01/07 05:55:35;;;;;;;4.13;2.10;;;;;;;8.93;100.00;101184.72;5265822;28;20057;-74
2023/01/07 05:58:07;;;;;;;4.40;2.25;;;;;;;9.00;100.00;101187.28;5265468;28;20108;-73
2023/01/07 06:00:39;;;;;;;5.57;2.47;;;;;;;9.01;100.00;101192.50;5265323;28;20045;-75
2023/01/07 06:03:10;;;;;;;6.83;2.80;;;;;;;9.05;100.00;101188.19;5265367;28;20025;-74
2023/01/07 06:05:41;;;;;;;4.80;2.00;;;;;;;9.08;100.00;101185.56;5265200;28;20071;-74
2023/01/07 06:08:14;;;;;;;3.83;2.07;;;;;;;9.09;100.00;101182.09;5265164;28;20080;-75
2023/01/07 06:10:45;;;;;;;6.47;2.30;;;;;;;9.08;100.00;101178.66;5265020;28;20411;-75
2023/01/07 06:13:17;;;;;;;2.87;1.90;;;;;;;9.08;100.00;101181.25;5263881;28;20025;-74
2023/01/07 06:15:48;;;;;;;2.77;2.17;;;;;;;9.07;100.00;101178.66;5265237;28;20037;-75
2023/01/07 06:18:19;;;;;;;4.30;1.80;;;;;;;9.04;100.00;101176.91;5263835;28;20068;-75
2023/01/07 06:20:51;;;;;;;4.50;1.87;;;;;;;9.08;100.00;101165.66;5265230;28;20033;-74
2023/01/07 06:23:22;;;;;;;4.43;1.90;;;;;;;9.11;100.00;101164.75;5264411;28;20036;-75
2023/01/07 06:25:54;;;;;;;2.90;2.07;;;;;;;9.09;100.00;101164.75;5265134;28;20062;-75
2023/01/07 06:28:25;;;;;;;3.80;1.80;;;;;;;9.09;100.00;101153.50;5265054;28;20037;-76
2023/01/07 06:30:57;;;;;;;4.10;1.77;;;;;;;9.09;100.00;101153.50;5265460;28;20147;-74
2023/01/07 06:33:28;;;;;;;5.63;1.87;;;;;;;9.08;100.00;101154.34;5264932;28;20466;-74
2023/01/07 06:35:59;;;;;;;2.33;1.73;;;;;;;9.06;100.00;101149.16;5266801;28;20033;-73
2023/01/07 06:38:31;;;;;;;4.27;1.70;;;;;;;9.07;100.00;101155.25;5282188;28;20159;-73
2023/01/07 06:41:02;;;;;;;4.07;1.90;;;;;;;9.06;100.00;101151.75;5264703;28;20515;-73
2023/01/07 06:43:34;;;;;;;3.83;2.27;;;;;;;9.08;100.00;101149.16;5265486;28;20495;-75
2023/01/07 06:46:05;;;;;;;1.60;1.30;;;;;;;9.05;100.00;101147.44;5264030;28;20526;-75
2023/01/07 06:48:36;;;;;;;2.80;1.50;;;;;;;9.08;100.00;101146.56;5263451;28;20086;-74
2023/01/07 06:51:08;;;;;;;3.97;1.53;;;;;;;9.07;99.89;101143.09;5264935;28;20040;-74
2023/01/07 06:53:39;;;;;;;6.03;1.60;;;;;;;9.06;100.00;101133.53;5263234;28;20087;-74
2023/01/07 06:56:11;;;;;;;3.33;1.77;;;;;;;9.09;99.71;101137.88;5263517;28;20033;-75
2023/01/07 06:58:42;;;;;;;4.93;2.20;;;;;;;9.09;99.11;101137.88;5273014;28;20033;-75
2023/01/07 07:01:13;;;;;;;2.23;1.50;;;;;;;9.06;99.36;101138.75;5285093;28;20031;-75
2023/01/07 07:03:45;;;;;;;4.20;1.77;;;;;;;9.08;98.63;101143.94;5284103;28;20032;-74
2023/01/07 07:06:16;;;;;;;3.03;1.73;;;;;;;9.07;98.76;101135.28;5284573;28;20123;-74
2023/01/07 07:08:48;;;;;;;4.53;1.60;;;;;;;9.06;98.56;101132.69;5283758;28;20108;-75
2023/01/07 07:11:19;;;;;;;4.63;1.80;;;;;;;9.11;97.66;101133.53;5284727;28;20032;-74
2023/01/07 07:13:50;;;;;;;2.17;1.40;;;;;;;9.12;97.79;101117.94;5283975;28;20036;-74
2023/01/07 07:16:22;;;;;;;3.17;1.80;;;;;;;9.09;97.66;101117.09;5282974;28;20039;-73
2023/01/07 07:18:54;;;;;;;2.25;1.67;;;;;;;9.06;97.96;101117.94;5266241;28;20452;-74
2023/01/07 07:21:25;;;;;;;3.17;1.77;;;;;;;9.05;97.58;101107.56;5283156;28;20025;-73
2023/01/07 07:23:59;;;;;;;3.40;1.60;;;;;;;9.00;98.18;101112.78;5281839;28;20110;-72
2023/01/07 07:26:30;;;;;;;2.40;1.55;;;;;;;8.97;97.36;101107.56;5284568;28;20024;-73
2023/01/07 07:29:02;;;;;;;4.57;2.13;;;;;;;9.01;97.30;101109.28;5283328;28;20039;-73
2023/01/07 07:31:33;;;;;;;1.70;1.60;;;;;;;8.98;97.35;101109.28;5284545;28;20032;-74
2023/01/07 07:34:04;;;;;;;3.77;1.40;;;;;;;8.96;97.16;101113.63;5283724;28;20040;-74
2023/01/07 07:36:36;;;;;;;3.50;1.60;;;;;;;8.93;97.74;101106.72;5282629;28;20143;-74
2023/01/07 07:39:08;;;;;;;2.80;1.67;;;;;;;8.94;97.46;101107.56;5282115;28;20502;-74
2023/01/07 07:41:39;;;;;;;3.70;1.77;;;;;;;8.93;97.64;101106.72;5282733;28;20359;-75
2023/01/07 07:44:11;;;;;;;2.23;1.70;;;;;;;8.92;97.66;101098.91;5283093;28;20020;-74
2023/01/07 07:46:42;;;;;;;3.03;1.53;;;;;;;8.93;97.19;101096.31;5283582;28;20036;-74
2023/01/07 07:49:13;;;;;;;1.67;1.40;;;;;;;8.95;97.19;101091.09;5283352;28;20028;-74
2023/01/07 07:51:45;;;;;;;1.80;1.57;;;;;;;8.98;96.96;101092.84;5283953;28;20055;-74
2023/01/07 07:54:16;;;;;;;3.60;1.97;;;;;;;8.97;97.15;101091.97;5281311;28;20033;-74
2023/01/07 07:56:47;;;;;;;3.37;1.80;;;;;;;9.01;96.50;101085.88;5283464;28;20051;-74
2023/01/07 07:59:22;;;;;;;3.50;2.07;;;;;;;8.99;96.31;101087.63;5281923;28;20039;-73
2023/01/07 08:01:54;;;;;;;3.72;1.80;;;;;;;8.98;96.27;101082.44;5283134;28;20040;-73
2023/01/07 08:04:27;;;;;;;3.73;2.00;;;;;;;8.99;96.31;101078.97;5283250;28;20037;-74
2023/01/07 08:07:00;;;;;;;1.85;1.40;;;;;;;8.94;96.25;101074.63;5283478;28;20063;-74
2023/01/07 08:09:34;;;;;;;;;;;;;;;8.99;96.10;101069.44;5283800;28;20475;-73
2023/01/07 08:12:05;;;;;;;2.03;1.50;;;;;;;8.97;95.58;101065.97;5285422;28;19948;-74
2023/01/07 08:14:37;;;;;;;3.40;1.53;;;;;;;9.00;95.61;101063.38;5286552;28;20063;-73
2023/01/07 08:17:09;;;;;;;1.77;1.40;;;;;;;9.02;94.97;101063.38;5303819;28;20560;-72
2023/01/07 08:19:42;;;;;;;2.47;1.50;;;;;;;9.04;95.20;101065.09;5305447;28;20044;-72
2023/01/07 08:22:14;;;;;;;2.50;1.73;;;;;;;9.08;94.88;101063.34;5293282;28;20028;-73
2023/01/07 08:24:45;;;;;;;3.43;2.07;;;;;;;9.12;94.14;101062.47;5291665;28;20380;-73
2023/01/07 08:27:17;;;;;;;1.57;1.47;;;;;;;9.15;94.39;101061.63;5287397;28;20059;-73
2023/01/07 08:29:50;;;;;;;3.17;1.37;;;;;;;9.19;93.53;101060.72;5286644;28;20039;-73
2023/01/07 08:32:22;;;;;;;1.95;1.30;;;;;;;9.21;93.33;101054.66;5285357;28;20119;-74
2023/01/07 08:34:54;;;;;;;5.53;1.60;;;;;;;9.27;92.53;101053.75;5286632;28;20107;-75
2023/01/07 08:37:28;;;;;;;1.95;1.40;;;;;;;9.31;92.57;101063.28;5285933;28;20032;-74
2023/01/07 08:40:00;;;;;;;2.20;1.75;;;;;;;9.33;92.21;101052.88;5286177;28;20402;-72
2023/01/07 08:42:31;;;;;;;2.37;1.40;;;;;;;9.34;91.22;101055.47;5283718;28;20082;-73
2023/01/07 08:45:03;;;;;;;3.53;1.40;;;;;;;9.36;91.59;101043.31;5286003;28;20418;-73
2023/01/07 08:47:35;;;;;;;2.25;1.60;;;;;;;9.37;91.08;101046.78;5285007;28;20033;-73
2023/01/07 08:50:07;;;;;;;4.03;1.30;;;;;;;9.41;90.13;101036.34;5283874;28;20050;-73
2023/01/07 08:52:39;;;;;;;3.53;1.40;;;;;;;9.45;89.37;101032.88;5283275;28;20090;-73
2023/01/07 08:55:11;;;;;;;;;;;;;;;9.51;90.17;101031.97;5284469;28;20726;-72
2023/01/07 08:57:42;;;;;;;2.20;1.25;;;;;;;9.53;88.80;101034.56;5283114;28;19919;-72
2023/01/07 09:00:16;;;;;;;1.73;1.40;;;;;;;9.53;88.70;101039.78;5284147;28;20040;-72
2023/01/07 09:02:47;;;;;;;3.05;1.42;;;;;;;9.54;88.52;101041.53;5282944;28;20099;-72
2023/01/07 09:05:18;;;;;;;1.87;1.37;;;;;;;9.55;87.54;101046.72;5283604;28;20044;-72
2023/01/07 09:07:53;;;;;;;3.53;1.40;;;;;;;9.56;88.24;101034.56;5282124;28;20052;-72
2023/01/07 09:10:24;;;;;;;2.75;1.27;;;;;;;9.58;88.76;101022.41;5283867;28;20476;-72
2023/01/07 09:12:56;;;;;;;2.03;1.10;;;;;;;9.59;87.97;101019.78;5276144;28;20024;-72
2023/01/07 09:15:27;;;;;;;2.30;1.20;;;;;;;9.64;87.55;101023.25;5282089;28;20111;-72
2023/01/07 09:18:02;;;;;;;1.73;1.30;;;;;;;9.66;87.71;101018.06;5282837;28;20025;-73
2023/01/07 09:20:33;;;;;;;1.50;1.33;;;;;;;9.71;86.61;101016.28;5259300;28;20056;-72
2023/01/07 09:23:05;;;;;;;1.77;1.40;;;;;;;9.72;87.05;101019.75;5275194;28;20499;-73
2023/01/07 09:25:36;;;;;;;2.23;1.47;;;;;;;9.73;86.37;101008.47;5285454;28;20510;-73
2023/01/07 09:28:08;;;;;;;1.90;1.23;;;;;;;9.77;86.21;101020.56;5284401;28;20432;-73
2023/01/07 09:30:39;;;;;;;1.43;1.30;;;;;;;9.81;85.77;101006.69;5286276;28;20086;-74
2023/01/07 09:33:10;;;;;;;2.60;1.50;;;;;;;9.85;85.12;101013.56;5285619;28;20151;-73
2023/01/07 09:35:42;;;;;;;1.47;1.10;;;;;;;9.88;83.70;101004.91;5285051;28;20024;-73
2023/01/07 09:38:13;;;;;;;4.07;1.37;;;;;;;9.91;83.77;100997.91;5285082;28;20033;-73
2023/01/07 09:40:45;;;;;;;1.93;1.23;;;;;;;9.97;84.42;100999.63;5286094;28;20843;-73
2023/01/07 09:43:31;;;;;;;2.07;1.40;;;;;;;10.02;83.38;100995.25;5282855;28;20032;-73
2023/01/07 09:46:07;;;;;;;1.95;1.40;;;;;;;10.04;82.40;100981.31;5278771;28;20120;-73
2023/01/07 09:48:46;;;;;;;2.72;1.20;;;;;;;10.17;82.18;100991.66;5281835;28;20032;-73
2023/01/07 09:51:29;;;;;;;1.77;1.13;;;;;;;10.27;81.96;100985.53;5286064;28;20030;-72
2023/01/07 09:54:02;;;;;;;1.40;1.20;;;;;;;10.43;80.68;100978.44;5283512;28;20475;-72
2023/01/07 09:56:35;;;;;;;1.33;1.23;;;;;;;10.71;79.70;100968.63;5285861;28;20103;-73
2023/01/07 09:59:09;;;;;;;4.00;1.65;;;;;;;10.96;78.30;100970.94;5285296;28;20036;-73
2023/01/07 10:01:47;;;;;;;1.55;1.33;;;;;;;11.20;77.73;100961.97;5283409;28;20034;-73
2023/01/07 10:04:24;;;;;;;1.70;1.23;;;;;;;11.50;76.32;100968.53;5284830;28;20063;-73
2023/01/07 10:06:58;;;;;;;1.50;1.20;;;;;;;11.71;74.95;100968.28;5285688;28;20029;-73
2023/01/07 10:09:51;;;;;;;2.53;1.45;;;;;;;11.75;74.18;100964.72;5282284;28;20114;-75
2023/01/07 10:12:30;;;;;;;2.47;1.35;;;;;;;11.73;73.22;100951.69;5284728;28;20483;-74
2023/01/07 10:15:30;;;;;;;2.35;1.27;;;;;;;11.80;74.26;100949.81;5284811;28;20081;-72
2023/01/07 10:18:20;;;;;;;3.10;1.85;;;;;;;11.84;73.04;100934.09;5284322;28;20071;-74
2023/01/07 10:20:54;;;;;;;2.47;1.20;;;;;;;11.84;72.20;100926.25;5285683;28;20178;-73
2023/01/07 10:23:31;;;;;;;2.67;1.40;;;;;;;11.99;71.32;100916.47;5283321;28;20032;-73
2023/01/07 10:26:04;;;;;;;1.52;1.20;;;;;;;12.17;71.22;100921.41;5285367;28;20524;-72
2023/01/07 10:28:58;;;;;;;1.95;1.17;;;;;;;12.26;70.04;100906.47;5284824;28;20037;-73
2023/01/07 10:31:30;;;;;;;2.70;1.40;;;;;;;12.37;69.21;100905.38;5285411;28;20129;-74
2023/01/07 10:34:01;;;;;;;2.23;1.10;;;;;;;12.61;68.75;100895.34;5284497;28;20056;-73
2023/01/07 10:36:42;;;;;;;1.37;1.20;;;;;;;12.71;68.79;100888.16;5284972;28;20078;-73
2023/01/07 10:39:33;;;;;;;1.10;0.95;;;;;;;12.42;67.59;100879.13;5284311;28;20017;-74
2023/01/07 10:42:41;;;;;;;2.42;1.30;;;;;;;12.78;68.59;100884.53;5285066;28;20033;-74
2023/01/07 10:45:33;;;;;;;2.90;1.42;;;;;;;12.70;66.89;100884.72;5285121;28;20036;-74
2023/01/07 10:48:43;;;;;;;1.60;1.33;;;;;;;12.74;66.33;100864.56;5284494;28;20032;-74
2023/01/07 10:51:34;;;;;;;2.80;1.13;;;;;;;12.79;65.12;100865.34;5284954;28;20024;-73
2023/01/07 10:54:24;;;;;;;1.92;1.17;;;;;;;12.89;64.93;100858.16;5283610;28;20083;-73
2023/01/07 10:57:09;;;;;;;3.40;1.20;;;;;;;12.99;64.30;100861.44;5277541;28;20456;-73
2023/01/07 10:59:53;;;;;;;1.48;1.20;;;;;;;13.01;62.84;100851.78;5283511;28;20418;-72
2023/01/07 11:02:27;;;;;;;1.42;1.17;;;;;;;12.77;63.09;100841.81;5283793;28;20055;-73
2023/01/07 11:04:59;;;;;;;2.70;1.15;;;;;;;12.76;63.24;100842.69;5282390;28;20071;-73
2023/01/07 11:07:47;;;;;;;2.10;1.10;;;;;;;12.97;63.62;100853.63;5282955;28;20087;-73
2023/01/07 11:10:24;;;;;;;1.75;1.33;;;;;;;12.64;64.43;100840.38;5282975;28;20567;-73
2023/01/07 11:13:00;;;;;;;2.83;1.40;;;;;;;12.52;64.56;100833.59;5283333;28;20067;-73
2023/01/07 11:15:39;;;;;;;2.20;1.10;;;;;;;12.49;64.16;100830.19;5283660;28;20040;-74
2023/01/07 11:18:30;;;;;;;2.17;1.33;;;;;;;12.40;63.63;100845.19;5282225;28;20067;-72
2023/01/07 11:21:02;;;;;;;1.27;1.10;;;;;;;12.54;64.14;100823.13;5283357;28;20495;-73
2023/01/07 11:23:42;;;;;;;1.83;1.10;;;;;;;12.53;63.80;100827.50;5281877;28;20033;-74
2023/01/07 11:26:24;;;;;;;2.55;1.35;;;;;;;12.44;63.92;100813.75;5281815;28;20132;-73
2023/01/07 11:29:28;;;;;;;1.63;1.33;;;;;;;12.79;62.92;100806.94;5281282;28;20402;-73
2023/01/07 11:32:02;;;;;;;1.77;1.30;;;;;;;13.13;61.71;100794.78;5283218;28;20033;-74
2023/01/07 11:34:50;;;;;;;1.70;1.35;;;;;;;13.18;62.47;100789.47;5281736;28;20040;-73
2023/01/07 11:37:38;;;;;;;1.63;1.27;;;;;;;13.22;61.37;100779.81;5282764;28;20071;-74
2023/01/07 11:40:13;;;;;;;1.27;1.00;;;;;;;13.79;59.93;100773.16;5280708;28;20032;-73
2023/01/07 11:42:54;;;;;;;1.73;1.05;;;;;;;13.58;59.75;100777.19;5276298;28;20491;-73
2023/01/07 11:45:47;;;;;;;1.52;1.40;;;;;;;13.80;58.47;100769.66;5282421;28;20029;-73
2023/01/07 11:48:31;;;;;;;1.58;1.40;;;;;;;13.62;59.15;100756.13;5281863;28;20091;-73
2023/01/07 11:51:09;;;;;;;2.70;1.23;;;;;;;13.56;59.38;100751.03;5296521;28;20036;-74
2023/01/07 11:53:51;;;;;;;3.42;1.33;;;;;;;13.62;59.83;100740.41;5301555;28;20051;-75
2023/01/07 11:56:26;;;;;;;2.05;1.33;;;;;;;13.49;59.21;100739.88;5288424;28;20039;-74
2023/01/07 11:59:10;;;;;;;3.17;1.60;;;;;;;13.99;59.09;100739.44;5286215;28;20046;-73
2023/01/07 12:01:49;;;;;;;2.17;1.50;;;;;;;14.36;57.04;100735.75;5285843;28;20051;-74
2023/01/07 12:04:22;;;;;;;1.50;1.40;;;;;;;14.17;56.35;100722.31;5282957;28;20033;-74
2023/01/07 12:06:59;;;;;;;2.25;1.67;;;;;;;13.98;56.87;100728.97;5284680;28;20040;-73
2023/01/07 12:09:30;;;;;;;3.45;1.67;;;;;;;13.95;56.63;100708.09;5284930;28;20044;-74
2023/01/07 12:12:30;;;;;;;2.57;1.40;;;;;;;14.45;55.67;100721.50;5283654;28;20124;-73